sensor_id;sensor_type;location;lat;lon;timestamp;P1;durP1;ratioP1;P2;durP2;ratioP2
20012;SDS011;10167;42.852;23.042;2023-06-26T00:00:14;4.15;;;2.75;;
20012;SDS011;10167;42.852;23.042;2023-06-26T00:02:45;2.63;;;2.15;;
20012;SDS011;10167;42.852;23.042;2023-06-26T00:05:14;7.38;;;2.95;;
20012;SDS011;10167;42.852;23.042;2023-06-26T00:07:43;7.25;;;2.30;;
20012;SDS011;10167;42.852;23.042;2023-06-26T00:10:13;2.83;;;2.35;;
20012;SDS011;10167;42.852;23.042;2023-06-26T00:12:42;4.60;;;2.78;;
20012;SDS011;10167;42.852;23.042;2023-06-26T00:15:11;2.95;;;1.67;;
20012;SDS011;10167;42.852;23.042;2023-06-26T00:17:40;3.17;;;1.88;;
20012;SDS011;10167;42.852;23.042;2023-06-26T00:20:09;4.18;;;3.38;;
20012;SDS011;10167;42.852;23.042;2023-06-26T00:22:40;2.13;;;1.40;;
20012;SDS011;10167;42.852;23.042;2023-06-26T00:25:09;2.17;;;1.92;;
20012;SDS011;10167;42.852;23.042;2023-06-26T00:27:39;3.28;;;2.05;;
20012;SDS011;10167;42.852;23.042;2023-06-26T00:30:08;1.80;;;1.70;;
20012;SDS011;10167;42.852;23.042;2023-06-26T00:32:37;1.60;;;1.40;;
20012;SDS011;10167;42.852;23.042;2023-06-26T00:35:06;2.90;;;2.15;;
20012;SDS011;10167;42.852;23.042;2023-06-26T00:37:36;2.85;;;2.30;;
20012;SDS011;10167;42.852;23.042;2023-06-26T00:40:05;3.88;;;2.33;;
20012;SDS011;10167;42.852;23.042;2023-06-26T00:42:34;2.28;;;1.92;;
20012;SDS011;10167;42.852;23.042;2023-06-26T00:45:05;3.13;;;2.20;;
20012;SDS011;10167;42.852;23.042;2023-06-26T00:47:34;2.67;;;2.25;;
20012;SDS011;10167;42.852;23.042;2023-06-26T00:50:04;3.92;;;2.10;;
20012;SDS011;10167;42.852;23.042;2023-06-26T00:52:32;2.28;;;1.70;;
20012;SDS011;10167;42.852;23.042;2023-06-26T00:55:02;2.38;;;2.20;;
20012;SDS011;10167;42.852;23.042;2023-06-26T00:57:34;1.63;;;1.17;;
20012;SDS011;10167;42.852;23.042;2023-06-26T01:00:03;1.40;;;1.30;;
20012;SDS011;10167;42.852;23.042;2023-06-26T01:02:34;3.17;;;1.90;;
20012;SDS011;10167;42.852;23.042;2023-06-26T01:05:06;3.17;;;2.63;;
20012;SDS011;10167;42.852;23.042;2023-06-26T01:07:37;1.33;;;1.23;;
20012;SDS011;10167;42.852;23.042;2023-06-26T01:10:06;3.53;;;1.75;;
20012;SDS011;10167;42.852;23.042;2023-06-26T01:12:37;7.20;;;2.17;;
20012;SDS011;10167;42.852;23.042;2023-06-26T01:15:06;1.77;;;1.67;;
20012;SDS011;10167;42.852;23.042;2023-06-26T01:17:38;3.13;;;2.28;;
20012;SDS011;10167;42.852;23.042;2023-06-26T01:20:10;4.03;;;2.60;;
20012;SDS011;10167;42.852;23.042;2023-06-26T01:22:43;2.00;;;1.65;;
20012;SDS011;10167;42.852;23.042;2023-06-26T01:25:15;7.47;;;1.75;;
20012;SDS011;10167;42.852;23.042;2023-06-26T01:27:52;2.88;;;1.67;;
20012;SDS011;10167;42.852;23.042;2023-06-26T01:30:23;2.47;;;2.08;;
20012;SDS011;10167;42.852;23.042;2023-06-26T01:32:52;2.50;;;1.83;;
20012;SDS011;10167;42.852;23.042;2023-06-26T01:35:21;2.10;;;1.90;;
20012;SDS011;10167;42.852;23.042;2023-06-26T01:37:50;2.47;;;1.95;;
20012;SDS011;10167;42.852;23.042;2023-06-26T01:40:19;2.40;;;1.60;;
20012;SDS011;10167;42.852;23.042;2023-06-26T01:42:48;3.60;;;2.70;;
20012;SDS011;10167;42.852;23.042;2023-06-26T01:45:21;1.30;;;1.25;;
20012;SDS011;10167;42.852;23.042;2023-06-26T01:47:52;3.80;;;2.33;;
20012;SDS011;10167;42.852;23.042;2023-06-26T01:50:22;3.58;;;2.90;;
20012;SDS011;10167;42.852;23.042;2023-06-26T01:52:53;2.97;;;2.58;;
20012;SDS011;10167;42.852;23.042;2023-06-26T01:55:28;12.35;;;3.10;;
20012;SDS011;10167;42.852;23.042;2023-06-26T01:58:03;12.13;;;2.80;;
20012;SDS011;10167;42.852;23.042;2023-06-26T02:00:33;2.55;;;2.28;;
20012;SDS011;10167;42.852;23.042;2023-06-26T02:03:03;3.25;;;2.78;;
20012;SDS011;10167;42.852;23.042;2023-06-26T02:05:33;4.15;;;3.72;;
20012;SDS011;10167;42.852;23.042;2023-06-26T02:08:03;3.72;;;3.22;;
20012;SDS011;10167;42.852;23.042;2023-06-26T02:10:32;2.50;;;2.25;;
20012;SDS011;10167;42.852;23.042;2023-06-26T02:13:01;5.43;;;3.40;;
20012;SDS011;10167;42.852;23.042;2023-06-26T02:15:30;3.05;;;2.53;;
20012;SDS011;10167;42.852;23.042;2023-06-26T02:18:01;4.78;;;2.95;;
20012;SDS011;10167;42.852;23.042;2023-06-26T02:20:30;9.15;;;4.10;;
20012;SDS011;10167;42.852;23.042;2023-06-26T02:22:59;5.72;;;3.13;;
20012;SDS011;10167;42.852;23.042;2023-06-26T02:25:28;3.08;;;2.63;;
20012;SDS011;10167;42.852;23.042;2023-06-26T02:27:57;8.77;;;3.17;;
20012;SDS011;10167;42.852;23.042;2023-06-26T02:30:26;4.57;;;2.42;;
20012;SDS011;10167;42.852;23.042;2023-06-26T02:32:55;6.82;;;3.80;;
20012;SDS011;10167;42.852;23.042;2023-06-26T02:35:25;2.42;;;2.33;;
20012;SDS011;10167;42.852;23.042;2023-06-26T02:37:53;4.75;;;2.83;;
20012;SDS011;10167;42.852;23.042;2023-06-26T02:40:23;3.53;;;3.20;;
20012;SDS011;10167;42.852;23.042;2023-06-26T02:42:52;3.83;;;2.63;;
20012;SDS011;10167;42.852;23.042;2023-06-26T02:45:21;6.32;;;3.78;;
20012;SDS011;10167;42.852;23.042;2023-06-26T02:47:50;4.60;;;3.30;;
20012;SDS011;10167;42.852;23.042;2023-06-26T02:50:19;3.03;;;2.72;;
20012;SDS011;10167;42.852;23.042;2023-06-26T02:53:06;2.72;;;2.53;;
20012;SDS011;10167;42.852;23.042;2023-06-26T02:55:36;9.90;;;3.13;;
20012;SDS011;10167;42.852;23.042;2023-06-26T02:58:05;7.68;;;3.67;;
20012;SDS011;10167;42.852;23.042;2023-06-26T03:00:35;4.80;;;4.18;;
20012;SDS011;10167;42.852;23.042;2023-06-26T03:03:14;4.78;;;3.70;;
20012;SDS011;10167;42.852;23.042;2023-06-26T03:05:43;6.10;;;3.15;;
20012;SDS011;10167;42.852;23.042;2023-06-26T03:08:14;4.55;;;3.05;;
20012;SDS011;10167;42.852;23.042;2023-06-26T03:10:43;8.93;;;3.60;;
20012;SDS011;10167;42.852;23.042;2023-06-26T03:13:12;5.53;;;2.72;;
20012;SDS011;10167;42.852;23.042;2023-06-26T03:15:41;3.50;;;2.58;;
20012;SDS011;10167;42.852;23.042;2023-06-26T03:18:10;5.90;;;2.72;;
20012;SDS011;10167;42.852;23.042;2023-06-26T03:20:38;2.80;;;2.60;;
20012;SDS011;10167;42.852;23.042;2023-06-26T03:23:07;2.75;;;2.50;;
20012;SDS011;10167;42.852;23.042;2023-06-26T03:25:38;2.40;;;2.20;;
20012;SDS011;10167;42.852;23.042;2023-06-26T03:28:27;3.85;;;2.25;;
20012;SDS011;10167;42.852;23.042;2023-06-26T03:30:56;3.60;;;2.38;;
20012;SDS011;10167;42.852;23.042;2023-06-26T03:33:25;4.07;;;2.83;;
20012;SDS011;10167;42.852;23.042;2023-06-26T03:35:57;2.97;;;2.67;;
20012;SDS011;10167;42.852;23.042;2023-06-26T03:38:26;3.75;;;3.03;;
20012;SDS011;10167;42.852;23.042;2023-06-26T03:40:59;6.05;;;3.50;;
20012;SDS011;10167;42.852;23.042;2023-06-26T03:43:30;3.17;;;2.83;;
20012;SDS011;10167;42.852;23.042;2023-06-26T03:46:15;2.53;;;2.33;;
20012;SDS011;10167;42.852;23.042;2023-06-26T03:48:47;3.25;;;2.83;;
20012;SDS011;10167;42.852;23.042;2023-06-26T03:51:15;4.85;;;3.20;;
20012;SDS011;10167;42.852;23.042;2023-06-26T03:53:44;5.63;;;2.58;;
20012;SDS011;10167;42.852;23.042;2023-06-26T03:56:15;3.97;;;2.50;;
20012;SDS011;10167;42.852;23.042;2023-06-26T03:58:43;3.00;;;2.60;;
20012;SDS011;10167;42.852;23.042;2023-06-26T04:01:12;3.85;;;2.53;;
20012;SDS011;10167;42.852;23.042;2023-06-26T04:03:42;4.28;;;2.42;;
20012;SDS011;10167;42.852;23.042;2023-06-26T04:06:12;3.85;;;3.22;;
20012;SDS011;10167;42.852;23.042;2023-06-26T04:08:41;3.65;;;2.92;;
20012;SDS011;10167;42.852;23.042;2023-06-26T04:11:10;23.52;;;4.05;;
20012;SDS011;10167;42.852;23.042;2023-06-26T04:13:40;4.53;;;2.35;;
20012;SDS011;10167;42.852;23.042;2023-06-26T04:16:09;4.60;;;3.10;;
20012;SDS011;10167;42.852;23.042;2023-06-26T04:18:38;4.55;;;3.13;;
20012;SDS011;10167;42.852;23.042;2023-06-26T04:21:07;26.10;;;3.30;;
20012;SDS011;10167;42.852;23.042;2023-06-26T04:23:36;3.88;;;3.40;;
20012;SDS011;10167;42.852;23.042;2023-06-26T04:26:06;5.43;;;2.88;;
20012;SDS011;10167;42.852;23.042;2023-06-26T04:28:35;4.90;;;2.28;;
20012;SDS011;10167;42.852;23.042;2023-06-26T04:31:06;4.25;;;3.03;;
20012;SDS011;10167;42.852;23.042;2023-06-26T04:33:36;2.80;;;1.50;;
20012;SDS011;10167;42.852;23.042;2023-06-26T04:36:08;3.08;;;2.42;;
20012;SDS011;10167;42.852;23.042;2023-06-26T04:38:38;11.27;;;3.08;;
20012;SDS011;10167;42.852;23.042;2023-06-26T04:41:07;3.55;;;2.72;;
20012;SDS011;10167;42.852;23.042;2023-06-26T04:43:36;2.33;;;1.90;;
20012;SDS011;10167;42.852;23.042;2023-06-26T04:46:06;17.13;;;3.47;;
20012;SDS011;10167;42.852;23.042;2023-06-26T04:48:35;6.63;;;3.10;;
20012;SDS011;10167;42.852;23.042;2023-06-26T04:51:04;3.95;;;2.90;;
20012;SDS011;10167;42.852;23.042;2023-06-26T04:53:32;5.63;;;3.47;;
20012;SDS011;10167;42.852;23.042;2023-06-26T04:56:01;4.75;;;2.85;;
20012;SDS011;10167;42.852;23.042;2023-06-26T04:58:30;4.53;;;2.33;;
20012;SDS011;10167;42.852;23.042;2023-06-26T05:00:59;3.35;;;2.60;;
20012;SDS011;10167;42.852;23.042;2023-06-26T05:03:31;4.10;;;2.83;;
20012;SDS011;10167;42.852;23.042;2023-06-26T05:06:00;12.35;;;3.40;;
20012;SDS011;10167;42.852;23.042;2023-06-26T05:08:35;4.45;;;2.45;;
20012;SDS011;10167;42.852;23.042;2023-06-26T05:11:04;5.03;;;2.65;;
20012;SDS011;10167;42.852;23.042;2023-06-26T05:13:33;1.95;;;1.85;;
20012;SDS011;10167;42.852;23.042;2023-06-26T05:16:02;3.45;;;2.63;;
20012;SDS011;10167;42.852;23.042;2023-06-26T05:18:32;5.40;;;3.47;;
20012;SDS011;10167;42.852;23.042;2023-06-26T05:21:02;7.72;;;2.47;;
20012;SDS011;10167;42.852;23.042;2023-06-26T05:23:31;3.55;;;1.98;;
20012;SDS011;10167;42.852;23.042;2023-06-26T05:26:01;12.18;;;3.03;;
20012;SDS011;10167;42.852;23.042;2023-06-26T05:28:34;6.68;;;2.25;;
20012;SDS011;10167;42.852;23.042;2023-06-26T05:31:04;3.60;;;2.30;;
20012;SDS011;10167;42.852;23.042;2023-06-26T05:33:34;3.90;;;2.15;;
20012;SDS011;10167;42.852;23.042;2023-06-26T05:36:04;2.83;;;2.08;;
20012;SDS011;10167;42.852;23.042;2023-06-26T05:38:34;4.85;;;2.92;;
20012;SDS011;10167;42.852;23.042;2023-06-26T05:41:03;3.10;;;2.22;;
20012;SDS011;10167;42.852;23.042;2023-06-26T05:43:34;4.93;;;2.60;;
20012;SDS011;10167;42.852;23.042;2023-06-26T05:46:04;3.45;;;2.90;;
20012;SDS011;10167;42.852;23.042;2023-06-26T05:48:34;4.88;;;2.22;;
20012;SDS011;10167;42.852;23.042;2023-06-26T05:51:03;2.55;;;2.33;;
20012;SDS011;10167;42.852;23.042;2023-06-26T05:53:32;3.25;;;2.60;;
20012;SDS011;10167;42.852;23.042;2023-06-26T05:56:02;4.05;;;2.42;;
20012;SDS011;10167;42.852;23.042;2023-06-26T05:58:31;4.35;;;2.70;;
20012;SDS011;10167;42.852;23.042;2023-06-26T06:01:00;3.38;;;2.95;;
20012;SDS011;10167;42.852;23.042;2023-06-26T06:03:29;3.10;;;2.30;;
20012;SDS011;10167;42.852;23.042;2023-06-26T06:06:01;2.97;;;1.73;;
20012;SDS011;10167;42.852;23.042;2023-06-26T06:08:30;8.93;;;2.20;;
20012;SDS011;10167;42.852;23.042;2023-06-26T06:10:59;3.55;;;2.17;;
20012;SDS011;10167;42.852;23.042;2023-06-26T06:13:28;2.67;;;1.40;;
20012;SDS011;10167;42.852;23.042;2023-06-26T06:15:57;3.85;;;2.55;;
20012;SDS011;10167;42.852;23.042;2023-06-26T06:18:26;5.30;;;2.95;;
20012;SDS011;10167;42.852;23.042;2023-06-26T06:20:54;2.95;;;2.03;;
20012;SDS011;10167;42.852;23.042;2023-06-26T06:23:25;3.28;;;2.42;;
20012;SDS011;10167;42.852;23.042;2023-06-26T06:25:53;2.28;;;1.88;;
20012;SDS011;10167;42.852;23.042;2023-06-26T06:28:22;2.95;;;2.13;;
20012;SDS011;10167;42.852;23.042;2023-06-26T06:30:51;1.30;;;1.20;;
20012;SDS011;10167;42.852;23.042;2023-06-26T06:33:20;2.22;;;1.88;;
20012;SDS011;10167;42.852;23.042;2023-06-26T06:35:51;2.42;;;1.88;;
20012;SDS011;10167;42.852;23.042;2023-06-26T06:38:20;1.90;;;1.50;;
20012;SDS011;10167;42.852;23.042;2023-06-26T06:40:58;3.85;;;2.00;;
20012;SDS011;10167;42.852;23.042;2023-06-26T06:43:27;5.10;;;2.25;;
20012;SDS011;10167;42.852;23.042;2023-06-26T06:45:56;1.70;;;1.60;;
20012;SDS011;10167;42.852;23.042;2023-06-26T06:48:25;2.75;;;1.67;;
20012;SDS011;10167;42.852;23.042;2023-06-26T06:50:54;1.77;;;1.45;;
20012;SDS011;10167;42.852;23.042;2023-06-26T06:53:23;2.75;;;1.88;;
20012;SDS011;10167;42.852;23.042;2023-06-26T06:55:51;2.97;;;2.08;;
20012;SDS011;10167;42.852;23.042;2023-06-26T06:58:22;1.63;;;1.52;;
20012;SDS011;10167;42.852;23.042;2023-06-26T07:00:51;1.45;;;1.27;;
20012;SDS011;10167;42.852;23.042;2023-06-26T07:03:20;4.82;;;2.10;;
20012;SDS011;10167;42.852;23.042;2023-06-26T07:05:49;2.15;;;1.85;;
20012;SDS011;10167;42.852;23.042;2023-06-26T07:08:18;1.13;;;0.95;;
20012;SDS011;10167;42.852;23.042;2023-06-26T07:10:47;1.95;;;1.33;;
20012;SDS011;10167;42.852;23.042;2023-06-26T07:13:16;2.58;;;1.55;;
20012;SDS011;10167;42.852;23.042;2023-06-26T07:15:46;3.05;;;2.28;;
20012;SDS011;10167;42.852;23.042;2023-06-26T07:18:16;3.03;;;1.08;;
20012;SDS011;10167;42.852;23.042;2023-06-26T07:20:45;4.40;;;1.33;;
20012;SDS011;10167;42.852;23.042;2023-06-26T07:23:14;2.28;;;2.00;;
20012;SDS011;10167;42.852;23.042;2023-06-26T07:25:43;1.73;;;1.63;;
20012;SDS011;10167;42.852;23.042;2023-06-26T07:28:11;2.75;;;1.20;;
20012;SDS011;10167;42.852;23.042;2023-06-26T07:30:41;3.40;;;0.90;;
20012;SDS011;10167;42.852;23.042;2023-06-26T07:33:12;1.98;;;1.13;;
20012;SDS011;10167;42.852;23.042;2023-06-26T07:35:43;1.50;;;1.40;;
20012;SDS011;10167;42.852;23.042;2023-06-26T07:38:12;1.48;;;1.38;;
20012;SDS011;10167;42.852;23.042;2023-06-26T07:40:41;1.38;;;0.95;;
20012;SDS011;10167;42.852;23.042;2023-06-26T07:43:10;1.55;;;1.45;;
20012;SDS011;10167;42.852;23.042;2023-06-26T07:45:39;2.10;;;0.98;;
20012;SDS011;10167;42.852;23.042;2023-06-26T07:48:07;1.75;;;1.08;;
20012;SDS011;10167;42.852;23.042;2023-06-26T07:50:38;1.40;;;1.00;;
20012;SDS011;10167;42.852;23.042;2023-06-26T07:53:07;2.17;;;1.98;;
20012;SDS011;10167;42.852;23.042;2023-06-26T07:55:36;0.85;;;0.52;;
20012;SDS011;10167;42.852;23.042;2023-06-26T07:58:05;1.88;;;0.95;;
20012;SDS011;10167;42.852;23.042;2023-06-26T08:00:34;1.65;;;1.13;;
20012;SDS011;10167;42.852;23.042;2023-06-26T08:03:03;1.63;;;1.50;;
20012;SDS011;10167;42.852;23.042;2023-06-26T08:05:40;1.58;;;1.48;;
20012;SDS011;10167;42.852;23.042;2023-06-26T08:08:09;1.13;;;1.08;;
20012;SDS011;10167;42.852;23.042;2023-06-26T08:10:38;1.05;;;0.95;;
20012;SDS011;10167;42.852;23.042;2023-06-26T08:13:07;1.48;;;1.38;;
20012;SDS011;10167;42.852;23.042;2023-06-26T08:15:36;0.63;;;0.63;;
20012;SDS011;10167;42.852;23.042;2023-06-26T08:18:05;1.20;;;1.13;;
20012;SDS011;10167;42.852;23.042;2023-06-26T08:20:34;1.00;;;1.00;;
20012;SDS011;10167;42.852;23.042;2023-06-26T08:23:06;1.90;;;1.17;;
20012;SDS011;10167;42.852;23.042;2023-06-26T08:25:35;0.95;;;0.90;;
20012;SDS011;10167;42.852;23.042;2023-06-26T08:28:04;1.88;;;1.63;;
20012;SDS011;10167;42.852;23.042;2023-06-26T08:30:33;4.18;;;1.52;;
20012;SDS011;10167;42.852;23.042;2023-06-26T08:33:02;1.50;;;1.15;;
20012;SDS011;10167;42.852;23.042;2023-06-26T08:35:31;1.20;;;1.00;;
20012;SDS011;10167;42.852;23.042;2023-06-26T08:37:59;1.70;;;1.45;;
20012;SDS011;10167;42.852;23.042;2023-06-26T08:40:30;2.95;;;1.73;;
20012;SDS011;10167;42.852;23.042;2023-06-26T08:42:59;1.90;;;0.93;;
20012;SDS011;10167;42.852;23.042;2023-06-26T08:45:27;0.63;;;0.63;;
20012;SDS011;10167;42.852;23.042;2023-06-26T08:47:59;1.40;;;1.17;;
20012;SDS011;10167;42.852;23.042;2023-06-26T08:50:30;3.17;;;0.73;;
20012;SDS011;10167;42.852;23.042;2023-06-26T08:53:01;0.65;;;0.65;;
20012;SDS011;10167;42.852;23.042;2023-06-26T08:55:36;1.58;;;1.48;;
20012;SDS011;10167;42.852;23.042;2023-06-26T08:58:07;2.35;;;1.85;;
20012;SDS011;10167;42.852;23.042;2023-06-26T09:00:36;2.47;;;1.48;;
20012;SDS011;10167;42.852;23.042;2023-06-26T09:03:05;1.75;;;0.80;;
20012;SDS011;10167;42.852;23.042;2023-06-26T09:05:35;8.95;;;1.50;;
20012;SDS011;10167;42.852;23.042;2023-06-26T09:08:04;0.75;;;0.75;;
20012;SDS011;10167;42.852;23.042;2023-06-26T09:10:33;1.15;;;1.00;;
20012;SDS011;10167;42.852;23.042;2023-06-26T09:13:04;2.83;;;0.68;;
20012;SDS011;10167;42.852;23.042;2023-06-26T09:15:47;5.45;;;1.98;;
20012;SDS011;10167;42.852;23.042;2023-06-26T09:18:17;1.48;;;1.02;;
20012;SDS011;10167;42.852;23.042;2023-06-26T09:20:46;0.55;;;0.55;;
20012;SDS011;10167;42.852;23.042;2023-06-26T09:23:15;1.10;;;0.95;;
20012;SDS011;10167;42.852;23.042;2023-06-26T09:25:44;0.65;;;0.65;;
20012;SDS011;10167;42.852;23.042;2023-06-26T09:28:17;0.88;;;0.88;;
20012;SDS011;10167;42.852;23.042;2023-06-26T09:30:46;2.85;;;1.30;;
20012;SDS011;10167;42.852;23.042;2023-06-26T09:33:15;1.27;;;1.17;;
20012;SDS011;10167;42.852;23.042;2023-06-26T09:35:44;0.90;;;0.90;;
20012;SDS011;10167;42.852;23.042;2023-06-26T09:38:13;5.85;;;1.98;;
20012;SDS011;10167;42.852;23.042;2023-06-26T09:40:42;1.58;;;1.00;;
20012;SDS011;10167;42.852;23.042;2023-06-26T09:43:12;0.95;;;0.90;;
20012;SDS011;10167;42.852;23.042;2023-06-26T09:45:43;1.83;;;1.13;;
20012;SDS011;10167;42.852;23.042;2023-06-26T09:48:12;1.45;;;0.80;;
20012;SDS011;10167;42.852;23.042;2023-06-26T09:50:44;4.95;;;1.60;;
20012;SDS011;10167;42.852;23.042;2023-06-26T09:53:35;8.45;;;0.90;;
20012;SDS011;10167;42.852;23.042;2023-06-26T09:56:05;1.40;;;1.30;;
20012;SDS011;10167;42.852;23.042;2023-06-26T09:58:34;0.95;;;0.95;;
20012;SDS011;10167;42.852;23.042;2023-06-26T10:01:06;1.42;;;0.80;;
20012;SDS011;10167;42.852;23.042;2023-06-26T10:03:37;1.63;;;0.90;;
20012;SDS011;10167;42.852;23.042;2023-06-26T10:06:06;1.42;;;1.08;;
20012;SDS011;10167;42.852;23.042;2023-06-26T10:08:36;1.48;;;0.77;;
20012;SDS011;10167;42.852;23.042;2023-06-26T10:11:06;0.90;;;0.80;;
20012;SDS011;10167;42.852;23.042;2023-06-26T10:13:38;2.58;;;1.40;;
20012;SDS011;10167;42.852;23.042;2023-06-26T10:16:08;0.98;;;0.95;;
20012;SDS011;10167;42.852;23.042;2023-06-26T10:18:39;1.80;;;1.25;;
20012;SDS011;10167;42.852;23.042;2023-06-26T10:21:10;4.30;;;1.52;;
20012;SDS011;10167;42.852;23.042;2023-06-26T10:23:40;1.27;;;1.15;;
20012;SDS011;10167;42.852;23.042;2023-06-26T10:26:09;0.98;;;0.88;;
20012;SDS011;10167;42.852;23.042;2023-06-26T10:28:39;7.90;;;0.70;;
20012;SDS011;10167;42.852;23.042;2023-06-26T10:31:11;1.00;;;0.90;;
20012;SDS011;10167;42.852;23.042;2023-06-26T10:33:41;0.60;;;0.60;;
20012;SDS011;10167;42.852;23.042;2023-06-26T10:36:13;1.52;;;1.13;;
20012;SDS011;10167;42.852;23.042;2023-06-26T10:38:49;0.73;;;0.70;;
20012;SDS011;10167;42.852;23.042;2023-06-26T10:41:21;1.40;;;1.30;;
20012;SDS011;10167;42.852;23.042;2023-06-26T10:43:51;1.02;;;1.02;;
20012;SDS011;10167;42.852;23.042;2023-06-26T10:46:22;1.60;;;1.20;;
20012;SDS011;10167;42.852;23.042;2023-06-26T10:48:58;0.90;;;0.65;;
20012;SDS011;10167;42.852;23.042;2023-06-26T10:51:27;1.52;;;1.13;;
20012;SDS011;10167;42.852;23.042;2023-06-26T10:53:56;0.60;;;0.60;;
20012;SDS011;10167;42.852;23.042;2023-06-26T10:56:40;1.38;;;1.27;;
20012;SDS011;10167;42.852;23.042;2023-06-26T10:59:17;1.42;;;1.10;;
20012;SDS011;10167;42.852;23.042;2023-06-26T11:01:53;2.75;;;1.10;;
20012;SDS011;10167;42.852;23.042;2023-06-26T11:04:36;1.50;;;1.38;;
20012;SDS011;10167;42.852;23.042;2023-06-26T11:07:15;5.47;;;1.45;;
20012;SDS011;10167;42.852;23.042;2023-06-26T11:09:55;1.27;;;1.15;;
20012;SDS011;10167;42.852;23.042;2023-06-26T11:12:34;3.22;;;1.40;;
20012;SDS011;10167;42.852;23.042;2023-06-26T11:15:04;1.52;;;0.80;;
20012;SDS011;10167;42.852;23.042;2023-06-26T11:17:37;2.67;;;1.30;;
20012;SDS011;10167;42.852;23.042;2023-06-26T11:20:07;5.70;;;1.33;;
20012;SDS011;10167;42.852;23.042;2023-06-26T11:22:36;1.85;;;0.90;;
20012;SDS011;10167;42.852;23.042;2023-06-26T11:25:05;1.30;;;1.08;;
20012;SDS011;10167;42.852;23.042;2023-06-26T11:27:37;3.88;;;1.27;;
20012;SDS011;10167;42.852;23.042;2023-06-26T11:30:07;1.65;;;0.95;;
20012;SDS011;10167;42.852;23.042;2023-06-26T11:32:37;12.77;;;0.75;;
20012;SDS011;10167;42.852;23.042;2023-06-26T11:35:07;0.88;;;0.77;;
20012;SDS011;10167;42.852;23.042;2023-06-26T11:37:36;3.03;;;1.73;;
20012;SDS011;10167;42.852;23.042;2023-06-26T11:42:54;3.53;;;1.98;;
20012;SDS011;10167;42.852;23.042;2023-06-26T11:45:23;1.15;;;0.88;;
20012;SDS011;10167;42.852;23.042;2023-06-26T11:47:54;1.13;;;1.02;;
20012;SDS011;10167;42.852;23.042;2023-06-26T11:50:23;1.27;;;1.10;;
20012;SDS011;10167;42.852;23.042;2023-06-26T11:52:53;1.33;;;1.23;;
20012;SDS011;10167;42.852;23.042;2023-06-26T11:55:22;4.45;;;1.13;;
20012;SDS011;10167;42.852;23.042;2023-06-26T11:57:53;1.52;;;0.82;;
20012;SDS011;10167;42.852;23.042;2023-06-26T12:00:22;1.13;;;1.08;;
20012;SDS011;10167;42.852;23.042;2023-06-26T12:02:52;1.65;;;0.60;;
20012;SDS011;10167;42.852;23.042;2023-06-26T12:05:21;0.65;;;0.63;;
20012;SDS011;10167;42.852;23.042;2023-06-26T12:07:50;1.15;;;0.70;;
20012;SDS011;10167;42.852;23.042;2023-06-26T12:10:19;1.60;;;1.00;;
20012;SDS011;10167;42.852;23.042;2023-06-26T12:12:49;2.33;;;1.25;;
20012;SDS011;10167;42.852;23.042;2023-06-26T12:15:19;2.72;;;1.50;;
20012;SDS011;10167;42.852;23.042;2023-06-26T12:17:47;1.55;;;1.40;;
20012;SDS011;10167;42.852;23.042;2023-06-26T12:20:21;0.65;;;0.55;;
20012;SDS011;10167;42.852;23.042;2023-06-26T12:22:53;0.80;;;0.80;;
20012;SDS011;10167;42.852;23.042;2023-06-26T12:25:22;0.95;;;0.70;;
20012;SDS011;10167;42.852;23.042;2023-06-26T12:27:57;1.67;;;1.38;;
20012;SDS011;10167;42.852;23.042;2023-06-26T12:30:26;1.10;;;1.00;;
20012;SDS011;10167;42.852;23.042;2023-06-26T12:32:58;0.65;;;0.65;;
20012;SDS011;10167;42.852;23.042;2023-06-26T12:35:28;2.83;;;1.25;;
20012;SDS011;10167;42.852;23.042;2023-06-26T12:37:57;0.60;;;0.60;;
20012;SDS011;10167;42.852;23.042;2023-06-26T12:40:26;2.97;;;1.33;;
20012;SDS011;10167;42.852;23.042;2023-06-26T12:42:55;2.55;;;1.10;;
20012;SDS011;10167;42.852;23.042;2023-06-26T12:45:24;1.58;;;1.25;;
20012;SDS011;10167;42.852;23.042;2023-06-26T12:48:06;2.28;;;0.93;;
20012;SDS011;10167;42.852;23.042;2023-06-26T12:50:42;1.80;;;1.15;;
20012;SDS011;10167;42.852;23.042;2023-06-26T12:53:11;1.77;;;1.48;;
20012;SDS011;10167;42.852;23.042;2023-06-26T12:55:41;1.00;;;0.73;;
20012;SDS011;10167;42.852;23.042;2023-06-26T12:58:09;1.20;;;1.10;;
20012;SDS011;10167;42.852;23.042;2023-06-26T13:00:38;3.03;;;1.40;;
20012;SDS011;10167;42.852;23.042;2023-06-26T13:03:08;1.13;;;0.93;;
20012;SDS011;10167;42.852;23.042;2023-06-26T13:05:39;1.65;;;1.50;;
20012;SDS011;10167;42.852;23.042;2023-06-26T13:10:39;2.20;;;1.08;;
20012;SDS011;10167;42.852;23.042;2023-06-26T13:13:09;2.35;;;1.02;;
20012;SDS011;10167;42.852;23.042;2023-06-26T13:15:38;1.90;;;0.80;;
20012;SDS011;10167;42.852;23.042;2023-06-26T13:18:06;1.23;;;1.15;;
20012;SDS011;10167;42.852;23.042;2023-06-26T13:20:35;1.85;;;1.25;;
20012;SDS011;10167;42.852;23.042;2023-06-26T13:23:06;0.90;;;0.90;;
20012;SDS011;10167;42.852;23.042;2023-06-26T13:25:35;1.60;;;1.38;;
20012;SDS011;10167;42.852;23.042;2023-06-26T13:28:04;2.08;;;1.63;;
20012;SDS011;10167;42.852;23.042;2023-06-26T13:30:33;0.95;;;0.95;;
20012;SDS011;10167;42.852;23.042;2023-06-26T13:33:02;0.82;;;0.82;;
20012;SDS011;10167;42.852;23.042;2023-06-26T13:35:36;0.57;;;0.57;;
20012;SDS011;10167;42.852;23.042;2023-06-26T13:38:07;0.88;;;0.60;;
20012;SDS011;10167;42.852;23.042;2023-06-26T13:40:36;1.55;;;1.30;;
20012;SDS011;10167;42.852;23.042;2023-06-26T13:43:05;1.90;;;1.13;;
20012;SDS011;10167;42.852;23.042;2023-06-26T13:45:34;2.08;;;1.10;;
20012;SDS011;10167;42.852;23.042;2023-06-26T13:48:03;2.45;;;1.50;;
20012;SDS011;10167;42.852;23.042;2023-06-26T13:50:32;0.30;;;0.30;;
20012;SDS011;10167;42.852;23.042;2023-06-26T13:53:21;1.67;;;1.23;;
20012;SDS011;10167;42.852;23.042;2023-06-26T13:55:50;1.17;;;0.68;;
20012;SDS011;10167;42.852;23.042;2023-06-26T13:58:19;1.92;;;1.15;;
20012;SDS011;10167;42.852;23.042;2023-06-26T14:00:49;1.70;;;1.10;;
20012;SDS011;10167;42.852;23.042;2023-06-26T14:03:20;2.20;;;1.00;;
20012;SDS011;10167;42.852;23.042;2023-06-26T14:05:49;1.80;;;1.27;;
20012;SDS011;10167;42.852;23.042;2023-06-26T14:08:18;2.20;;;1.27;;
20012;SDS011;10167;42.852;23.042;2023-06-26T14:10:48;1.27;;;1.02;;
20012;SDS011;10167;42.852;23.042;2023-06-26T14:13:20;0.70;;;0.70;;
20012;SDS011;10167;42.852;23.042;2023-06-26T14:15:50;1.80;;;1.38;;
20012;SDS011;10167;42.852;23.042;2023-06-26T14:18:20;1.95;;;1.30;;
20012;SDS011;10167;42.852;23.042;2023-06-26T14:20:51;7.22;;;1.10;;
20012;SDS011;10167;42.852;23.042;2023-06-26T14:23:20;2.40;;;1.38;;
20012;SDS011;10167;42.852;23.042;2023-06-26T14:25:51;3.92;;;1.90;;
20012;SDS011;10167;42.852;23.042;2023-06-26T14:28:20;2.60;;;1.08;;
20012;SDS011;10167;42.852;23.042;2023-06-26T14:30:49;1.27;;;1.05;;
20012;SDS011;10167;42.852;23.042;2023-06-26T14:33:18;5.88;;;1.20;;
20012;SDS011;10167;42.852;23.042;2023-06-26T14:35:46;1.45;;;0.70;;
20012;SDS011;10167;42.852;23.042;2023-06-26T14:38:16;0.68;;;0.68;;
20012;SDS011;10167;42.852;23.042;2023-06-26T14:40:45;0.75;;;0.73;;
20012;SDS011;10167;42.852;23.042;2023-06-26T14:43:16;1.15;;;1.05;;
20012;SDS011;10167;42.852;23.042;2023-06-26T14:45:46;1.60;;;1.50;;
20012;SDS011;10167;42.852;23.042;2023-06-26T14:48:18;1.27;;;1.17;;
20012;SDS011;10167;42.852;23.042;2023-06-26T14:50:48;0.85;;;0.60;;
20012;SDS011;10167;42.852;23.042;2023-06-26T14:53:21;3.83;;;1.33;;
20012;SDS011;10167;42.852;23.042;2023-06-26T14:55:50;5.45;;;1.17;;